createdAt,value
2022-07-31T00:00:41.357Z,21.52
2022-07-31T00:03:08.784Z,22.33
2022-07-31T00:05:41.420Z,21.50
2022-07-31T00:08:09.022Z,21.85
2022-07-31T00:10:35.679Z,21.55
2022-07-31T00:13:02.479Z,21.70
2022-07-31T00:15:29.108Z,21.67
2022-07-31T00:17:55.819Z,21.27
2022-07-31T00:20:22.253Z,21.38
2022-07-31T00:22:49.234Z,20.75
2022-07-31T00:25:16.878Z,20.30
2022-07-31T00:27:43.956Z,21.95
2022-07-31T00:30:13.046Z,20.67
2022-07-31T00:32:39.807Z,22.08
2022-07-31T00:35:07.008Z,22.08
2022-07-31T00:37:38.157Z,22.17
2022-07-31T00:40:07.918Z,21.80
2022-07-31T00:42:34.920Z,23.05
2022-07-31T00:45:01.587Z,21.60
2022-07-31T00:47:28.288Z,19.40
2022-07-31T00:49:56.771Z,21.60
2022-07-31T00:52:23.247Z,22.10
2022-07-31T00:54:49.680Z,21.08
2022-07-31T00:57:16.147Z,22.23
2022-07-31T00:59:43.718Z,23.48
2022-07-31T01:02:11.290Z,20.90
2022-07-31T01:04:37.708Z,22.23
2022-07-31T01:07:08.217Z,20.52
2022-07-31T01:09:34.653Z,22.92
2022-07-31T01:12:22.732Z,22.27
2022-07-31T01:14:53.113Z,20.67
2022-07-31T01:17:22.245Z,22.80
2022-07-31T01:19:50.696Z,21.42
2022-07-31T01:22:33.578Z,21.65
2022-07-31T01:25:29.209Z,21.00
2022-07-31T01:28:24.268Z,21.83
2022-07-31T01:31:27.238Z,21.80
2022-07-31T01:34:03.764Z,21.65
2022-07-31T01:36:35.192Z,23.02
2022-07-31T01:39:03.605Z,24.25
2022-07-31T01:41:34.230Z,24.17
2022-07-31T01:44:04.457Z,22.90
2022-07-31T01:49:09.831Z,23.75
2022-07-31T01:51:39.081Z,23.48
2022-07-31T01:54:06.347Z,24.88
2022-07-31T01:56:34.793Z,25.02
2022-07-31T01:59:02.877Z,26.33
2022-07-31T02:01:32.182Z,26.05
2022-07-31T02:04:01.328Z,26.27
2022-07-31T02:06:28.760Z,25.70
2022-07-31T02:08:56.540Z,27.27
2022-07-31T02:11:23.569Z,27.88
2022-07-31T02:13:51.583Z,29.55
2022-07-31T02:16:20.335Z,28.55
2022-07-31T02:18:49.683Z,29.85
2022-07-31T02:23:43.705Z,28.50
2022-07-31T02:26:10.340Z,30.80
2022-07-31T02:28:40.651Z,30.92
2022-07-31T02:31:11.481Z,33.13
2022-07-31T02:33:40.078Z,32.08
2022-07-31T02:36:07.749Z,32.83
2022-07-31T02:38:36.108Z,33.83
2022-07-31T02:41:05.225Z,31.30
2022-07-31T02:43:35.230Z,32.65
2022-07-31T02:46:03.404Z,31.02
2022-07-31T02:48:30.890Z,32.42
2022-07-31T02:50:58.138Z,34.08
2022-07-31T02:53:24.908Z,31.98
2022-07-31T02:55:51.796Z,30.88
2022-07-31T02:58:18.493Z,31.05
2022-07-31T03:00:45.855Z,31.38
2022-07-31T03:03:12.614Z,32.20
2022-07-31T03:05:39.066Z,33.70
2022-07-31T03:08:05.699Z,35.90
2022-07-31T03:10:32.163Z,34.35
2022-07-31T03:13:00.677Z,32.75
2022-07-31T03:15:28.947Z,35.97
2022-07-31T03:17:55.734Z,35.95
2022-07-31T03:20:23.440Z,35.78
2022-07-31T03:22:50.718Z,32.80
2022-07-31T03:25:21.612Z,34.17
2022-07-31T03:27:56.014Z,33.88
2022-07-31T03:30:25.182Z,33.20
2022-07-31T03:32:56.167Z,35.72
2022-07-31T03:35:24.598Z,35.97
2022-07-31T03:37:51.565Z,37.10
2022-07-31T03:40:18.223Z,37.05
2022-07-31T03:42:45.401Z,36.33
2022-07-31T03:45:13.241Z,38.20
2022-07-31T03:47:40.057Z,35.58
2022-07-31T03:50:07.956Z,36.78
2022-07-31T03:52:34.916Z,34.95
2022-07-31T03:55:01.728Z,34.88
2022-07-31T03:57:33.989Z,33.85
2022-07-31T04:00:02.642Z,32.95
2022-07-31T04:02:29.879Z,33.33
2022-07-31T04:04:58.554Z,34.17
2022-07-31T04:07:25.102Z,36.58
2022-07-31T04:09:51.945Z,34.75
2022-07-31T04:12:18.523Z,33.67
2022-07-31T04:14:45.193Z,34.90
2022-07-31T04:17:11.879Z,38.00
2022-07-31T04:19:39.259Z,42.42
2022-07-31T04:22:06.713Z,35.40
2022-07-31T04:24:34.185Z,43.38
2022-07-31T04:27:00.662Z,43.47
2022-07-31T04:29:28.688Z,42.20
2022-07-31T04:31:55.855Z,39.80
2022-07-31T04:34:22.467Z,41.33
2022-07-31T04:36:48.969Z,40.40
2022-07-31T04:39:15.485Z,41.95
2022-07-31T04:41:41.947Z,40.75
2022-07-31T04:44:08.444Z,42.75
2022-07-31T04:46:34.907Z,42.05
2022-07-31T04:49:01.478Z,42.20
2022-07-31T04:51:28.104Z,41.97
2022-07-31T04:53:54.586Z,41.10
2022-07-31T04:56:37.376Z,38.60
2022-07-31T04:59:06.683Z,39.33
2022-07-31T05:01:33.742Z,39.77
2022-07-31T05:04:00.647Z,40.05
2022-07-31T05:06:41.102Z,38.22
2022-07-31T05:09:13.746Z,36.80
2022-07-31T05:11:45.650Z,38.30
2022-07-31T05:14:14.223Z,34.22
2022-07-31T05:16:40.883Z,36.10
2022-07-31T05:19:14.508Z,36.55
2022-07-31T05:21:53.274Z,34.72
2022-07-31T05:24:32.699Z,35.55
2022-07-31T05:27:00.835Z,35.28
2022-07-31T05:29:27.287Z,34.97
2022-07-31T05:31:59.977Z,34.53
2022-07-31T05:34:30.150Z,36.30
2022-07-31T05:36:58.322Z,34.50
2022-07-31T05:39:25.198Z,33.88
2022-07-31T05:41:52.704Z,29.02
2022-07-31T05:44:19.361Z,28.30
2022-07-31T05:46:45.873Z,26.88
2022-07-31T05:49:12.666Z,24.90
2022-07-31T05:51:42.494Z,21.55
2022-07-31T05:54:08.927Z,18.13
2022-07-31T05:56:35.376Z,15.60
2022-07-31T05:59:01.807Z,18.75
2022-07-31T06:01:28.353Z,19.85
2022-07-31T06:03:54.803Z,17.92
2022-07-31T06:06:21.452Z,16.92
2022-07-31T06:08:47.889Z,15.70
2022-07-31T06:11:14.310Z,15.60
2022-07-31T06:13:43.518Z,14.80
2022-07-31T06:16:16.173Z,14.23
2022-07-31T06:18:43.109Z,13.25
2022-07-31T06:21:09.881Z,12.85
2022-07-31T06:23:37.409Z,13.07
2022-07-31T06:26:04.345Z,11.80
2022-07-31T06:28:43.173Z,11.85
2022-07-31T06:31:21.998Z,11.80
2022-07-31T06:33:49.932Z,11.27
2022-07-31T06:36:17.786Z,10.93
2022-07-31T06:38:44.523Z,10.73
2022-07-31T06:41:10.927Z,9.88
2022-07-31T06:43:37.557Z,10.52
2022-07-31T06:46:04.013Z,10.60
2022-07-31T06:48:30.625Z,9.95
2022-07-31T06:51:27.964Z,9.68
2022-07-31T06:53:43.472Z,9.15
2022-07-31T06:56:10.136Z,9.00
2022-07-31T06:58:36.588Z,8.77
2022-07-31T07:01:03.199Z,10.70
2022-07-31T07:03:29.672Z,9.70
2022-07-31T07:05:56.103Z,10.07
2022-07-31T07:08:22.596Z,9.95
2022-07-31T07:10:49.487Z,9.70
2022-07-31T07:13:15.991Z,9.60
2022-07-31T07:15:42.411Z,11.10
2022-07-31T07:18:08.856Z,11.40
2022-07-31T07:20:35.285Z,11.38
2022-07-31T07:23:01.717Z,10.80
2022-07-31T07:25:28.793Z,11.02
2022-07-31T07:27:56.628Z,11.25
2022-07-31T07:30:23.704Z,10.38
2022-07-31T07:32:50.120Z,9.55
2022-07-31T07:35:16.678Z,9.38
2022-07-31T07:37:43.170Z,8.52
2022-07-31T07:40:09.983Z,8.52
2022-07-31T07:42:36.574Z,8.60
2022-07-31T07:45:08.106Z,9.23
2022-07-31T07:48:05.294Z,8.93
2022-07-31T07:50:22.727Z,8.95
2022-07-31T07:52:53.339Z,9.07
2022-07-31T07:55:19.755Z,8.25
2022-07-31T07:57:46.250Z,8.15
2022-07-31T08:00:13.616Z,8.68
2022-07-31T08:02:41.256Z,7.72
2022-07-31T08:05:07.823Z,9.10
2022-07-31T08:07:42.862Z,8.45
2022-07-31T08:10:09.892Z,8.02
2022-07-31T08:12:36.514Z,8.23
2022-07-31T08:15:04.430Z,7.95
2022-07-31T08:17:31.148Z,8.38
2022-07-31T08:19:57.633Z,8.40
2022-07-31T08:22:24.086Z,7.40
2022-07-31T08:24:50.564Z,7.22
2022-07-31T08:27:39.614Z,8.00
2022-07-31T08:30:07.205Z,7.38
2022-07-31T08:32:33.667Z,8.32
2022-07-31T08:35:00.223Z,7.90
2022-07-31T08:37:51.815Z,8.00
2022-07-31T08:40:13.123Z,7.72
2022-07-31T08:42:39.568Z,8.32
2022-07-31T08:45:07.990Z,7.47
2022-07-31T08:47:35.906Z,8.25
2022-07-31T08:50:06.450Z,7.53
2022-07-31T08:52:34.917Z,8.57
2022-07-31T08:55:06.356Z,7.78
2022-07-31T08:57:33.404Z,7.70
2022-07-31T08:59:59.818Z,7.38
2022-07-31T09:02:26.511Z,7.90
2022-07-31T09:04:53.094Z,7.25
2022-07-31T09:07:19.711Z,7.95
2022-07-31T09:09:51.552Z,8.07
2022-07-31T09:12:33.609Z,7.72
2022-07-31T09:15:00.935Z,8.15
2022-07-31T09:17:35.874Z,8.32
2022-07-31T09:20:04.317Z,8.13
2022-07-31T09:22:31.367Z,7.82
2022-07-31T09:25:12.853Z,8.20
2022-07-31T09:27:39.575Z,7.60
2022-07-31T09:30:07.679Z,7.45
2022-07-31T09:32:34.123Z,7.65
2022-07-31T09:35:14.455Z,7.55
2022-07-31T09:37:41.283Z,7.72
2022-07-31T09:40:09.275Z,7.13
2022-07-31T09:42:38.301Z,7.80
2022-07-31T09:45:23.024Z,7.70
2022-07-31T09:48:14.382Z,8.48
2022-07-31T09:50:58.511Z,7.82
2022-07-31T09:53:25.815Z,8.00
2022-07-31T09:55:53.892Z,7.75
2022-07-31T09:58:22.202Z,7.50
2022-07-31T10:00:52.419Z,7.22
2022-07-31T10:03:19.785Z,7.45
2022-07-31T10:05:47.550Z,7.57
2022-07-31T10:08:17.269Z,7.18
2022-07-31T10:10:45.065Z,6.90
2022-07-31T10:13:15.474Z,7.50
2022-07-31T10:15:45.492Z,7.30
2022-07-31T10:18:11.980Z,7.50
2022-07-31T10:20:42.075Z,7.15
2022-07-31T10:23:18.952Z,10.57
2022-07-31T10:25:54.472Z,6.90
2022-07-31T10:28:21.901Z,6.93
2022-07-31T10:30:49.209Z,7.07
2022-07-31T10:33:41.857Z,7.60
2022-07-31T10:36:09.171Z,8.00
2022-07-31T10:39:06.487Z,8.10
2022-07-31T10:41:51.828Z,7.57
2022-07-31T10:44:32.130Z,7.00
2022-07-31T10:47:12.133Z,6.90
2022-07-31T10:49:48.347Z,7.20
2022-07-31T10:52:29.229Z,7.63
2022-07-31T10:54:58.246Z,7.45
2022-07-31T10:57:27.106Z,6.82
2022-07-31T10:59:54.093Z,7.63
2022-07-31T11:02:32.083Z,7.15
2022-07-31T11:05:22.988Z,7.03
2022-07-31T11:08:01.501Z,7.20
2022-07-31T11:10:28.167Z,7.28
2022-07-31T11:13:08.360Z,7.50
2022-07-31T11:15:37.383Z,7.82
2022-07-31T11:18:25.374Z,7.72
2022-07-31T11:21:09.467Z,7.28
2022-07-31T11:23:55.640Z,7.45
2022-07-31T11:26:33.062Z,7.57
2022-07-31T11:30:01.488Z,7.97
2022-07-31T11:31:54.540Z,7.35
2022-07-31T11:34:21.081Z,7.40
2022-07-31T11:36:51.255Z,7.57
2022-07-31T11:39:18.541Z,7.47
2022-07-31T11:41:47.295Z,7.15
2022-07-31T11:44:20.731Z,6.97
2022-07-31T11:46:49.945Z,6.80
2022-07-31T11:49:39.206Z,6.60
2022-07-31T11:52:30.785Z,7.35
2022-07-31T11:55:13.379Z,6.70
2022-07-31T11:57:50.764Z,6.70
2022-07-31T12:00:26.769Z,6.80
2022-07-31T12:02:57.531Z,7.22
2022-07-31T12:05:38.731Z,7.20
2022-07-31T12:08:07.706Z,6.63
2022-07-31T12:10:34.457Z,7.10
2022-07-31T12:13:02.304Z,6.90
2022-07-31T12:15:29.114Z,7.00
2022-07-31T12:18:05.059Z,7.28
2022-07-31T12:20:36.991Z,7.13
2022-07-31T12:23:05.483Z,6.80
2022-07-31T12:25:42.663Z,7.13
2022-07-31T12:28:10.078Z,7.30
2022-07-31T12:30:36.685Z,7.38
2022-07-31T12:33:07.856Z,7.63
2022-07-31T12:35:56.242Z,7.07
2022-07-31T12:38:44.724Z,7.00
2022-07-31T12:41:13.470Z,7.28
2022-07-31T12:43:40.275Z,7.45
2022-07-31T12:46:19.101Z,7.70
2022-07-31T12:48:46.370Z,7.25
2022-07-31T12:51:13.159Z,7.28
2022-07-31T12:53:39.643Z,7.57
2022-07-31T12:56:11.381Z,7.28
2022-07-31T12:58:37.842Z,7.57
2022-07-31T13:01:04.503Z,7.10
2022-07-31T13:03:38.861Z,7.30
2022-07-31T13:06:13.216Z,7.25
2022-07-31T13:08:39.710Z,7.70
2022-07-31T13:11:06.146Z,7.82
2022-07-31T13:13:32.579Z,7.32
2022-07-31T13:15:59.027Z,7.32
2022-07-31T13:18:25.467Z,8.40
2022-07-31T13:20:51.896Z,7.97
2022-07-31T13:23:18.335Z,7.60
2022-07-31T13:25:44.789Z,7.40
2022-07-31T13:28:11.323Z,7.50
2022-07-31T13:30:38.592Z,7.60
2022-07-31T13:33:05.136Z,7.60
2022-07-31T13:35:32.607Z,7.60
2022-07-31T13:37:59.021Z,7.53
2022-07-31T13:40:44.617Z,7.60
2022-07-31T13:43:11.334Z,7.47
2022-07-31T13:45:38.305Z,7.40
2022-07-31T13:48:09.369Z,7.20
2022-07-31T13:50:39.874Z,7.40
2022-07-31T13:53:06.710Z,7.82
2022-07-31T13:55:33.330Z,7.28
2022-07-31T13:58:01.437Z,7.57
2022-07-31T14:00:29.380Z,7.75
2022-07-31T14:02:56.045Z,7.93
2022-07-31T14:05:24.324Z,7.80
2022-07-31T14:07:53.262Z,7.82
2022-07-31T14:10:21.517Z,7.97
2022-07-31T14:12:48.704Z,7.95
2022-07-31T14:15:16.504Z,7.80
2022-07-31T14:17:43.325Z,7.88
2022-07-31T14:20:10.220Z,8.25
2022-07-31T14:22:36.810Z,8.50
2022-07-31T14:25:04.149Z,8.18
2022-07-31T14:27:30.750Z,8.13
2022-07-31T14:29:57.224Z,8.25
2022-07-31T14:32:25.062Z,8.70
2022-07-31T14:34:52.106Z,8.23
2022-07-31T14:37:18.764Z,8.95
2022-07-31T14:39:45.233Z,10.05
2022-07-31T14:42:12.229Z,10.45
2022-07-31T14:44:41.881Z,11.60
2022-07-31T14:50:09.526Z,12.15
2022-07-31T14:52:22.493Z,12.45
2022-07-31T14:54:49.109Z,11.88
2022-07-31T14:57:20.227Z,12.40
2022-07-31T14:59:49.060Z,15.75
2022-07-31T15:02:19.858Z,20.05
2022-07-31T15:04:48.526Z,22.85
2022-07-31T15:07:34.205Z,24.30
2022-07-31T15:10:02.064Z,25.70
2022-07-31T15:12:29.118Z,28.52
2022-07-31T15:14:55.499Z,29.38
2022-07-31T15:17:21.930Z,29.67
2022-07-31T15:19:48.398Z,29.80
2022-07-31T15:22:17.459Z,30.38
2022-07-31T15:24:48.286Z,31.75
2022-07-31T15:27:16.038Z,31.63
2022-07-31T15:30:03.333Z,32.05
2022-07-31T15:32:29.569Z,31.40
2022-07-31T15:34:56.036Z,33.10
2022-07-31T15:37:23.423Z,32.10
2022-07-31T15:40:02.962Z,33.40
2022-07-31T15:42:34.099Z,33.67
2022-07-31T15:45:00.767Z,35.38
2022-07-31T15:47:27.255Z,34.10
2022-07-31T15:49:53.746Z,33.83
2022-07-31T15:52:20.189Z,35.08
2022-07-31T15:54:47.136Z,34.35
2022-07-31T15:57:16.058Z,35.40
2022-07-31T15:59:42.708Z,35.25
2022-07-31T16:02:09.113Z,35.92
2022-07-31T16:04:51.652Z,36.25
2022-07-31T16:08:33.190Z,36.33
2022-07-31T16:10:15.577Z,37.30
2022-07-31T16:12:43.106Z,35.60
2022-07-31T16:15:12.225Z,36.22
2022-07-31T16:17:38.891Z,36.97
2022-07-31T16:20:11.793Z,37.63
2022-07-31T16:22:40.342Z,36.53
2022-07-31T16:25:09.768Z,36.88
2022-07-31T16:27:37.131Z,37.60
2022-07-31T16:30:04.822Z,37.55
2022-07-31T16:32:31.286Z,37.83
2022-07-31T16:35:00.939Z,37.38
2022-07-31T16:37:50.283Z,37.60
2022-07-31T16:40:30.397Z,37.33
2022-07-31T16:43:50.247Z,37.28
2022-07-31T16:45:53.434Z,38.78
2022-07-31T16:48:19.998Z,38.78
2022-07-31T16:50:48.358Z,39.78
2022-07-31T16:54:14.500Z,39.83
2022-07-31T16:56:07.000Z,39.78
2022-07-31T16:58:33.507Z,40.30
2022-07-31T17:01:00.086Z,41.20
2022-07-31T17:04:02.077Z,42.45
2022-07-31T17:06:13.014Z,42.00
2022-07-31T17:08:39.472Z,42.72
2022-07-31T17:11:05.969Z,42.95
2022-07-31T17:13:32.565Z,42.85
2022-07-31T17:15:59.046Z,45.85
2022-07-31T17:18:25.966Z,44.65
2022-07-31T17:20:56.266Z,44.47
2022-07-31T17:23:43.365Z,43.85
2022-07-31T17:26:21.173Z,44.33
2022-07-31T17:28:48.485Z,42.72
2022-07-31T17:31:14.887Z,43.20
2022-07-31T17:33:58.217Z,44.63
2022-07-31T17:36:27.657Z,45.28
2022-07-31T17:38:54.123Z,45.33
2022-07-31T17:41:24.787Z,42.58
2022-07-31T17:43:53.301Z,44.10
2022-07-31T17:46:22.135Z,43.58
2022-07-31T17:49:01.434Z,43.70
2022-07-31T17:51:27.924Z,45.53
2022-07-31T17:53:55.145Z,43.95
2022-07-31T17:56:26.251Z,42.25
2022-07-31T17:58:52.698Z,44.25
2022-07-31T18:01:19.166Z,45.30
2022-07-31T18:03:45.848Z,42.45
2022-07-31T18:06:12.299Z,44.17
2022-07-31T18:08:38.760Z,43.70
2022-07-31T18:11:06.500Z,44.38
2022-07-31T18:13:48.338Z,44.25
2022-07-31T18:16:18.719Z,43.08
2022-07-31T18:18:45.684Z,44.88
2022-07-31T18:21:13.475Z,45.13
2022-07-31T18:23:43.566Z,45.75
2022-07-31T18:26:14.301Z,46.53
2022-07-31T18:28:40.823Z,46.25
2022-07-31T18:31:32.687Z,46.95
2022-07-31T18:33:53.887Z,46.25
2022-07-31T18:36:21.224Z,45.72
2022-07-31T18:38:47.887Z,48.72
2022-07-31T18:41:14.500Z,46.38
2022-07-31T18:43:40.966Z,46.47
2022-07-31T18:46:07.401Z,48.53
2022-07-31T18:48:34.296Z,50.13
2022-07-31T18:51:04.762Z,48.60
2022-07-31T18:53:32.251Z,48.17
2022-07-31T18:55:58.702Z,47.22
2022-07-31T18:58:25.159Z,48.03
2022-07-31T19:00:55.118Z,47.20
2022-07-31T19:03:23.277Z,47.30
2022-07-31T19:05:50.845Z,47.88
2022-07-31T19:08:17.395Z,45.90
2022-07-31T19:10:43.955Z,45.60
2022-07-31T19:13:17.231Z,44.75
2022-07-31T19:15:47.093Z,43.60
2022-07-31T19:18:14.239Z,44.25
2022-07-31T19:20:56.391Z,45.88
2022-07-31T19:23:27.107Z,46.95
2022-07-31T19:26:03.520Z,45.72
2022-07-31T19:28:32.725Z,44.25
2022-07-31T19:30:59.230Z,45.30
2022-07-31T19:33:25.763Z,43.33
2022-07-31T19:35:58.348Z,41.33
2022-07-31T19:38:27.533Z,40.60
2022-07-31T19:40:54.464Z,40.38
2022-07-31T19:43:21.051Z,39.42
2022-07-31T19:46:10.508Z,39.65
2022-07-31T19:48:35.190Z,38.50
2022-07-31T19:51:01.659Z,40.28
2022-07-31T19:53:28.238Z,39.22
2022-07-31T19:55:54.971Z,39.38
2022-07-31T19:58:21.647Z,38.97
2022-07-31T20:00:48.161Z,38.55
2022-07-31T20:03:14.666Z,38.17
2022-07-31T20:05:41.203Z,38.28
2022-07-31T20:08:07.619Z,38.50
2022-07-31T20:10:34.130Z,38.35
2022-07-31T20:13:00.646Z,36.90
2022-07-31T20:15:27.433Z,37.78
2022-07-31T20:18:27.559Z,35.78
2022-07-31T20:20:59.910Z,35.75
2022-07-31T20:23:27.243Z,36.47
2022-07-31T20:25:53.795Z,37.40
2022-07-31T20:28:20.413Z,35.85
2022-07-31T20:30:46.886Z,35.25
2022-07-31T20:33:13.666Z,36.13
2022-07-31T20:35:49.018Z,36.25
2022-07-31T20:38:23.810Z,36.35
2022-07-31T20:40:53.689Z,35.65
2022-07-31T20:43:27.102Z,36.28
2022-07-31T20:45:57.262Z,37.72
2022-07-31T20:48:26.452Z,37.25
2022-07-31T20:50:53.030Z,37.25
2022-07-31T20:53:20.853Z,37.58
2022-07-31T20:55:49.705Z,39.92
2022-07-31T20:58:18.400Z,40.40
2022-07-31T21:00:45.503Z,41.33
2022-07-31T21:03:11.994Z,41.85
2022-07-31T21:05:38.484Z,42.63
2022-07-31T21:08:05.257Z,44.33
2022-07-31T21:10:32.056Z,43.85
2022-07-31T21:12:58.489Z,45.78
2022-07-31T21:15:42.525Z,44.50
2022-07-31T21:18:16.091Z,47.83
2022-07-31T21:20:49.612Z,46.10
2022-07-31T21:23:19.433Z,46.00
2022-07-31T21:25:46.059Z,45.08
2022-07-31T21:28:12.837Z,44.92
2022-07-31T21:30:40.121Z,44.22
2022-07-31T21:33:07.897Z,43.70
2022-07-31T21:35:36.632Z,42.75
2022-07-31T21:38:04.397Z,43.40
2022-07-31T21:40:31.681Z,42.72
2022-07-31T21:42:58.435Z,44.67
2022-07-31T21:45:31.395Z,45.78
2022-07-31T21:48:14.109Z,45.55
2022-07-31T21:50:45.503Z,46.90
2022-07-31T21:53:13.124Z,44.85
2022-07-31T21:55:40.646Z,48.00
2022-07-31T21:58:08.362Z,46.60
2022-07-31T22:00:35.228Z,47.15
2022-07-31T22:03:03.410Z,49.60
2022-07-31T22:05:49.054Z,49.05
2022-07-31T22:08:16.136Z,47.38
2022-07-31T22:10:42.801Z,49.25
2022-07-31T22:13:09.427Z,50.85
2022-07-31T22:15:58.539Z,50.88
2022-07-31T22:18:23.175Z,50.30
2022-07-31T22:20:53.204Z,52.00
2022-07-31T22:23:19.983Z,50.33
2022-07-31T22:25:48.948Z,50.92
2022-07-31T22:28:18.897Z,50.72
2022-07-31T22:30:45.886Z,50.28
2022-07-31T22:33:12.581Z,50.22
2022-07-31T22:35:40.582Z,51.40
2022-07-31T22:38:07.833Z,51.03
2022-07-31T22:40:34.690Z,50.63
2022-07-31T22:43:02.382Z,50.15
2022-07-31T22:45:30.232Z,51.95
2022-07-31T22:47:57.713Z,49.65
2022-07-31T22:50:24.800Z,50.50
2022-07-31T22:52:51.802Z,49.95
2022-07-31T22:55:18.446Z,49.78
2022-07-31T22:57:45.187Z,48.50
2022-07-31T23:00:13.910Z,48.35
2022-07-31T23:02:41.595Z,47.92
2022-07-31T23:05:09.003Z,51.00
2022-07-31T23:07:35.548Z,48.13
2022-07-31T23:10:02.267Z,49.38
2022-07-31T23:12:29.459Z,48.95
2022-07-31T23:14:56.191Z,49.45
2022-07-31T23:17:23.578Z,50.15
2022-07-31T23:19:54.360Z,47.63
2022-07-31T23:22:33.511Z,50.08
2022-07-31T23:25:08.911Z,49.67
2022-07-31T23:27:35.631Z,49.83
2022-07-31T23:30:02.113Z,49.10
2022-07-31T23:32:28.755Z,47.63
2022-07-31T23:34:55.274Z,49.55
2022-07-31T23:37:21.722Z,48.63
2022-07-31T23:39:48.289Z,48.65
2022-07-31T23:42:33.418Z,46.90
2022-07-31T23:44:59.924Z,47.30
2022-07-31T23:47:27.979Z,45.58
2022-07-31T23:50:11.823Z,43.13
2022-07-31T23:52:38.283Z,44.05
2022-07-31T23:55:05.190Z,42.58
2022-07-31T23:57:34.359Z,43.47
